createdAt,value
2022-08-28T01:54:32.583Z,100.00
2022-08-28T01:57:01.452Z,100.00
2022-08-28T01:59:31.145Z,100.00
2022-08-28T02:02:03.011Z,100.00
2022-08-28T02:04:47.966Z,100.00
2022-08-28T02:07:19.937Z,100.00
2022-08-28T02:09:56.845Z,100.00
2022-08-28T02:12:31.860Z,100.00
2022-08-28T02:15:01.164Z,100.00
2022-08-28T03:03:32.412Z,100.00
2022-08-28T03:06:02.020Z,100.00
2022-08-28T03:08:33.718Z,100.00
2022-08-28T03:11:12.962Z,100.00
2022-08-28T03:13:46.116Z,100.00
2022-08-28T03:16:15.979Z,100.00
2022-08-28T03:18:50.778Z,100.00
2022-08-28T03:21:22.196Z,100.00
2022-08-28T03:23:53.429Z,100.00
2022-08-28T03:29:10.478Z,100.00
2022-08-28T03:31:41.765Z,100.00
2022-08-28T03:34:11.292Z,100.00
2022-08-28T03:36:41.139Z,100.00
2022-08-28T03:39:15.936Z,100.00
2022-08-28T03:41:52.350Z,100.00
2022-08-28T03:44:24.021Z,100.00
2022-08-28T03:47:00.733Z,100.00
2022-08-28T04:27:55.973Z,100.00
2022-08-28T04:30:29.249Z,100.00
2022-08-28T04:33:00.558Z,100.00
2022-08-28T04:35:29.376Z,100.00
2022-08-28T04:37:59.070Z,100.00
2022-08-28T04:40:35.092Z,100.00
2022-08-28T04:43:06.111Z,100.00
2022-08-28T04:45:38.373Z,100.00
2022-08-28T04:48:10.588Z,100.00
2022-08-28T04:50:46.445Z,100.00
2022-08-28T04:53:16.346Z,100.00
2022-08-28T04:55:54.448Z,100.00
2022-08-28T04:58:32.818Z,100.00
2022-08-28T05:01:09.752Z,100.00
2022-08-28T05:03:36.623Z,100.00
2022-08-28T05:06:09.639Z,100.00
2022-08-28T05:08:44.855Z,100.00
2022-08-28T05:11:32.707Z,100.00
2022-08-28T05:14:09.600Z,100.00
2022-08-28T05:16:45.428Z,100.00
2022-08-28T05:19:14.352Z,100.00
2022-08-28T05:21:43.310Z,100.00
2022-08-28T05:24:12.543Z,100.00
2022-08-28T05:26:41.725Z,100.00
2022-08-28T05:29:11.451Z,100.00
2022-08-28T05:31:41.584Z,100.00
2022-08-28T05:34:11.257Z,100.00
2022-08-28T05:36:40.564Z,100.00
2022-08-28T05:39:12.788Z,100.00
2022-08-28T05:41:43.964Z,100.00
2022-08-28T05:44:16.733Z,100.00
2022-08-28T05:46:48.493Z,100.00
2022-08-28T05:49:19.471Z,100.00
2022-08-28T05:51:49.852Z,100.00
2022-08-28T05:54:20.372Z,100.00
2022-08-28T05:56:50.701Z,100.00
2022-08-28T05:59:19.618Z,100.00
2022-08-28T06:01:51.103Z,100.00
2022-08-28T06:04:28.514Z,100.00
2022-08-28T06:06:59.602Z,100.00
2022-08-28T06:09:30.203Z,100.00
2022-08-28T06:12:03.095Z,100.00
2022-08-28T06:14:32.971Z,100.00
2022-08-28T06:17:04.696Z,100.00
2022-08-28T06:19:39.411Z,100.00
2022-08-28T06:22:14.838Z,97.35
2022-08-28T06:24:43.099Z,96.58
2022-08-28T06:27:15.781Z,96.44
2022-08-28T06:29:48.700Z,97.70
2022-08-28T06:32:17.698Z,97.46
2022-08-28T06:34:44.899Z,96.88
2022-08-28T06:37:11.779Z,95.86
2022-08-28T06:39:38.773Z,95.61
2022-08-28T06:42:07.764Z,94.75
2022-08-28T06:44:43.547Z,95.93
2022-08-28T06:47:13.973Z,93.72
2022-08-28T06:49:42.412Z,95.64
2022-08-28T06:52:14.107Z,93.09
2022-08-28T06:54:41.288Z,92.80
2022-08-28T06:57:31.479Z,93.23
2022-08-28T07:00:01.823Z,90.18
2022-08-28T07:02:35.544Z,91.59
2022-08-28T07:05:02.576Z,90.94
2022-08-28T07:07:32.866Z,91.01
2022-08-28T07:10:05.572Z,91.26
2022-08-28T07:12:33.070Z,90.39
2022-08-28T07:15:03.813Z,90.29
2022-08-28T07:17:33.249Z,91.34
2022-08-28T07:20:11.196Z,92.08
2022-08-28T07:22:45.471Z,90.47
2022-08-28T07:25:15.219Z,89.19
2022-08-28T07:27:47.460Z,89.30
2022-08-28T07:30:17.193Z,87.29
2022-08-28T07:32:51.364Z,88.84
2022-08-28T07:35:21.035Z,87.95
2022-08-28T07:37:52.973Z,86.88
2022-08-28T07:40:24.472Z,86.62
2022-08-28T07:43:17.328Z,86.32
2022-08-28T07:45:45.750Z,85.99
2022-08-28T07:48:14.109Z,85.00
2022-08-28T07:50:48.604Z,86.26
2022-08-28T07:53:24.086Z,84.61
2022-08-28T07:55:51.996Z,82.94
2022-08-28T07:58:23.534Z,84.96
2022-08-28T08:00:53.124Z,85.88
2022-08-28T08:03:21.001Z,84.05
2022-08-28T08:06:06.930Z,83.08
2022-08-28T08:08:44.512Z,82.46
2022-08-28T08:11:18.544Z,82.65
2022-08-28T08:13:50.913Z,83.54
2022-08-28T08:16:24.182Z,80.29
2022-08-28T08:18:53.146Z,78.01
2022-08-28T08:21:26.056Z,79.96
2022-08-28T08:24:05.043Z,77.88
2022-08-28T08:26:34.268Z,77.82
2022-08-28T08:29:06.996Z,75.82
2022-08-28T08:31:39.034Z,74.63
2022-08-28T08:34:15.267Z,76.89
2022-08-28T08:36:46.480Z,75.69
2022-08-28T08:39:19.821Z,73.88
2022-08-28T08:41:55.678Z,72.66
2022-08-28T08:44:34.824Z,74.58
2022-08-28T08:47:20.392Z,72.89
2022-08-28T08:50:01.122Z,74.96
2022-08-28T08:53:08.732Z,73.32
2022-08-28T08:55:56.134Z,75.06
2022-08-28T08:58:35.533Z,72.67
2022-08-28T09:01:18.901Z,73.71
2022-08-28T09:04:05.594Z,69.69
2022-08-28T09:06:55.212Z,72.31
2022-08-28T09:09:37.161Z,71.48
2022-08-28T09:12:11.593Z,74.32
2022-08-28T09:14:46.413Z,70.86
2022-08-28T09:17:24.174Z,69.42
2022-08-28T09:19:54.227Z,71.46
2022-08-28T09:22:25.971Z,67.93
2022-08-28T09:24:54.440Z,64.39
2022-08-28T09:27:32.645Z,65.00
2022-08-28T09:30:07.670Z,65.40
2022-08-28T09:33:05.956Z,65.67
2022-08-28T09:35:46.884Z,65.20
2022-08-28T09:38:27.970Z,64.95
2022-08-28T09:41:31.735Z,64.49
2022-08-28T09:44:03.825Z,63.33
2022-08-28T09:46:49.750Z,61.96
2022-08-28T09:49:26.212Z,59.85
2022-08-28T09:52:18.931Z,63.77
2022-08-28T09:54:55.348Z,60.46
2022-08-28T09:57:23.043Z,61.53
2022-08-28T10:00:02.938Z,59.58
2022-08-28T10:02:47.376Z,58.96
2022-08-28T10:05:20.032Z,56.47
2022-08-28T10:08:06.653Z,58.66
2022-08-28T10:10:46.881Z,59.90
2022-08-28T10:13:44.247Z,57.55
2022-08-28T10:16:48.741Z,57.90
2022-08-28T10:20:07.989Z,59.20
2022-08-28T10:22:42.373Z,57.40
2022-08-28T10:25:29.431Z,57.45
2022-08-28T10:28:26.203Z,58.73
2022-08-28T10:31:14.331Z,57.42
2022-08-28T10:34:27.701Z,58.79
2022-08-28T10:37:40.929Z,59.25
2022-08-28T10:40:33.052Z,58.58
2022-08-28T10:43:18.202Z,56.19
2022-08-28T10:45:50.622Z,56.13
2022-08-28T10:48:26.769Z,55.63
2022-08-28T10:51:06.840Z,55.26
2022-08-28T10:53:47.051Z,54.80
2022-08-28T10:56:22.088Z,57.34
2022-08-28T11:07:31.738Z,56.12
2022-08-28T11:13:26.081Z,56.18
2022-08-28T11:16:17.461Z,53.79
2022-08-28T11:19:38.744Z,52.04
2022-08-28T11:22:44.768Z,52.17
2022-08-28T11:25:26.254Z,54.37
2022-08-28T11:28:31.081Z,52.99
2022-08-28T11:31:19.150Z,53.61
2022-08-28T11:34:05.311Z,56.03
2022-08-28T11:37:01.222Z,54.81
2022-08-28T11:42:48.343Z,56.35
2022-08-28T11:45:49.303Z,56.39
2022-08-28T11:49:07.299Z,55.84
2022-08-28T11:52:01.031Z,55.44
2022-08-28T11:55:10.505Z,55.67
2022-08-28T12:01:03.475Z,54.06
2022-08-28T12:04:07.571Z,53.54
2022-08-28T12:07:04.611Z,52.61
2022-08-28T12:09:55.893Z,51.21
2022-08-28T12:13:02.396Z,49.91
2022-08-28T12:15:35.228Z,54.78
2022-08-28T12:18:38.187Z,53.86
2022-08-28T12:21:48.714Z,53.50
2022-08-28T12:24:29.882Z,51.64
2022-08-28T12:27:00.203Z,52.18
2022-08-28T12:29:59.865Z,52.08
2022-08-28T12:36:15.556Z,49.32
2022-08-28T12:38:55.795Z,50.40
2022-08-28T12:41:38.147Z,48.79
2022-08-28T12:44:21.929Z,50.11
2022-08-28T12:46:53.995Z,48.03
2022-08-28T12:49:32.359Z,47.27
2022-08-28T12:52:22.690Z,47.90
2022-08-28T12:54:56.812Z,47.70
2022-08-28T12:57:30.826Z,48.66
2022-08-28T13:00:20.659Z,48.98
2022-08-28T13:02:55.835Z,48.40
2022-08-28T13:05:47.599Z,49.10
2022-08-28T13:08:26.264Z,47.79
2022-08-28T13:11:00.786Z,48.82
2022-08-28T13:13:38.362Z,47.80
2022-08-28T13:16:11.359Z,50.04
2022-08-28T13:18:45.806Z,47.45
2022-08-28T13:21:33.082Z,49.16
2022-08-28T13:24:20.833Z,49.91
2022-08-28T13:27:03.685Z,48.90
2022-08-28T13:29:33.759Z,49.33
2022-08-28T13:32:10.167Z,51.99
2022-08-28T13:34:45.533Z,50.55
2022-08-28T13:37:46.836Z,50.95
2022-08-28T13:40:45.969Z,53.85
2022-08-28T13:43:16.302Z,51.04
2022-08-28T13:46:02.948Z,51.49
2022-08-28T13:48:31.690Z,53.01
2022-08-28T13:51:21.156Z,53.54
2022-08-28T13:54:02.499Z,54.03
2022-08-28T13:56:44.661Z,52.24
2022-08-28T14:02:33.352Z,53.14
2022-08-28T14:05:16.201Z,53.36
2022-08-28T14:07:46.710Z,53.69
2022-08-28T14:10:43.506Z,54.07
2022-08-28T14:13:20.049Z,52.03
2022-08-28T14:15:47.541Z,50.49
2022-08-28T14:18:14.051Z,49.59
2022-08-28T14:20:41.027Z,51.18
2022-08-28T14:23:09.770Z,51.72
2022-08-28T14:25:42.714Z,51.10
2022-08-28T14:28:09.601Z,51.88
2022-08-28T14:30:40.736Z,54.36
2022-08-28T14:33:07.219Z,53.20
2022-08-28T14:35:38.703Z,54.49
2022-08-28T14:38:05.164Z,53.46
2022-08-28T14:40:31.685Z,53.32
2022-08-28T14:42:58.404Z,55.23
2022-08-28T14:45:24.872Z,53.21
2022-08-28T14:47:51.374Z,50.26
2022-08-28T14:50:17.842Z,50.03
2022-08-28T14:52:44.909Z,50.81
2022-08-28T14:55:18.822Z,48.66
2022-08-28T14:57:48.909Z,52.06
2022-08-28T15:00:17.782Z,53.77
2022-08-28T15:02:44.274Z,51.18
2022-08-28T15:05:11.904Z,50.65
2022-08-28T15:07:38.675Z,53.08
2022-08-28T15:10:05.516Z,50.07
2022-08-28T15:12:32.302Z,50.69
2022-08-28T15:14:58.796Z,51.18
2022-08-28T15:17:34.263Z,54.66
2022-08-28T15:20:01.483Z,52.05
2022-08-28T15:22:27.961Z,52.69
2022-08-28T15:24:55.717Z,51.62
2022-08-28T15:27:22.350Z,50.66
2022-08-28T15:29:48.772Z,54.24
2022-08-28T15:32:15.250Z,52.42
2022-08-28T15:34:42.692Z,53.17
2022-08-28T15:37:09.585Z,53.17
2022-08-28T15:39:58.511Z,53.98
2022-08-28T15:42:25.062Z,53.19
2022-08-28T15:44:51.507Z,51.79
2022-08-28T15:47:18.028Z,52.99
2022-08-28T15:49:48.734Z,50.47
2022-08-28T15:52:19.124Z,51.78
2022-08-28T15:54:46.083Z,50.58
2022-08-28T15:57:12.557Z,51.24
2022-08-28T15:59:50.088Z,50.65
2022-08-28T16:02:23.116Z,51.80
2022-08-28T16:04:50.261Z,51.71
2022-08-28T16:07:18.256Z,54.37
2022-08-28T16:09:44.763Z,55.39
2022-08-28T16:12:11.227Z,52.50
2022-08-28T16:14:37.697Z,53.42
2022-08-28T16:17:05.465Z,53.91
2022-08-28T16:19:37.012Z,55.25
2022-08-28T16:22:03.563Z,54.93
2022-08-28T16:24:30.043Z,53.66
2022-08-28T16:26:56.523Z,53.44
2022-08-28T16:29:22.996Z,53.53
2022-08-28T16:31:49.515Z,54.30
2022-08-28T16:34:19.574Z,53.32
2022-08-28T16:36:50.309Z,55.51
2022-08-28T16:39:17.515Z,55.23
2022-08-28T16:41:49.716Z,54.66
2022-08-28T16:44:20.234Z,54.51
2022-08-28T16:46:46.846Z,55.68
2022-08-28T16:49:13.496Z,56.13
2022-08-28T16:51:40.002Z,58.46
2022-08-28T16:54:06.992Z,55.99
2022-08-28T16:56:33.686Z,59.32
2022-08-28T16:59:00.130Z,59.43
2022-08-28T17:01:26.704Z,56.81
2022-08-28T17:03:57.260Z,56.97
2022-08-28T17:06:26.948Z,59.53
2022-08-28T17:08:56.876Z,60.18
2022-08-28T17:11:25.826Z,58.36
2022-08-28T17:13:52.760Z,59.83
2022-08-28T17:16:20.636Z,59.36
2022-08-28T17:18:52.135Z,59.18
2022-08-28T17:21:45.751Z,58.05
2022-08-28T17:24:12.872Z,60.58
2022-08-28T17:26:40.798Z,62.51
2022-08-28T17:29:07.402Z,62.92
2022-08-28T17:31:33.955Z,62.72
2022-08-28T17:34:00.588Z,64.84
2022-08-28T17:36:33.737Z,64.26
2022-08-28T17:39:02.717Z,64.03
2022-08-28T17:41:29.208Z,64.21
2022-08-28T17:43:55.748Z,66.65
2022-08-28T17:46:22.608Z,67.20
2022-08-28T17:48:54.393Z,66.74
2022-08-28T17:51:40.469Z,66.75
2022-08-28T17:54:11.007Z,67.08
2022-08-28T17:56:37.524Z,68.29
2022-08-28T17:59:04.786Z,69.20
2022-08-28T18:01:31.419Z,67.05
2022-08-28T18:03:57.902Z,69.86
2022-08-28T18:06:24.993Z,70.06
2022-08-28T18:08:51.937Z,69.95
2022-08-28T18:11:19.258Z,70.40
2022-08-28T18:13:46.558Z,72.56
2022-08-28T18:16:13.115Z,70.00
2022-08-28T18:18:39.664Z,73.16
2022-08-28T18:21:06.186Z,70.72
2022-08-28T18:23:32.752Z,74.45
2022-08-28T18:25:59.194Z,72.21
2022-08-28T18:28:26.661Z,72.00
2022-08-28T18:30:53.900Z,73.37
2022-08-28T18:33:23.456Z,75.52
2022-08-28T18:35:51.132Z,74.92
2022-08-28T18:38:19.262Z,75.76
2022-08-28T18:40:46.681Z,76.27
2022-08-28T18:43:13.889Z,77.11
2022-08-28T18:45:40.509Z,76.32
2022-08-28T18:48:08.065Z,76.77
2022-08-28T18:50:34.607Z,77.82
2022-08-28T18:53:01.357Z,77.21
2022-08-28T18:55:31.064Z,78.84
2022-08-28T18:58:00.330Z,79.02
2022-08-28T19:00:27.323Z,79.41
2022-08-28T19:02:54.393Z,78.94
2022-08-28T19:05:21.594Z,79.89
2022-08-28T19:07:49.030Z,80.15
2022-08-28T19:10:32.803Z,80.96
2022-08-28T19:13:01.857Z,79.94
2022-08-28T19:15:32.338Z,80.41
2022-08-28T19:18:18.486Z,81.05
2022-08-28T19:20:47.786Z,79.75
2022-08-28T19:23:17.625Z,80.95
2022-08-28T19:25:52.569Z,80.59
2022-08-28T19:28:19.097Z,80.08
2022-08-28T19:30:47.371Z,79.40
2022-08-28T19:33:16.922Z,80.34
2022-08-28T19:35:44.108Z,81.25
2022-08-28T19:38:13.539Z,80.69
2022-08-28T19:43:44.457Z,82.19
2022-08-28T19:46:20.622Z,81.16
2022-08-28T19:48:56.659Z,82.10
2022-08-28T19:51:29.386Z,81.92
2022-08-28T19:54:16.184Z,81.54
2022-08-28T20:07:10.152Z,82.23
2022-08-28T20:09:36.758Z,82.71
2022-08-28T20:16:08.787Z,83.31
2022-08-28T20:18:35.290Z,84.24
2022-08-28T20:21:02.033Z,83.06
2022-08-28T20:23:28.891Z,83.57
2022-08-28T20:25:55.336Z,84.67
2022-08-28T20:28:21.788Z,83.98
2022-08-28T20:30:48.314Z,84.62
2022-08-28T20:33:14.791Z,86.14
2022-08-28T20:35:41.366Z,85.70
2022-08-28T20:38:08.033Z,86.08
2022-08-28T20:40:34.782Z,85.45
2022-08-28T20:43:01.575Z,84.65
2022-08-28T20:45:28.968Z,85.30
2022-08-28T20:47:55.449Z,86.16
2022-08-28T20:50:21.916Z,86.71
2022-08-28T20:52:48.383Z,86.65
2022-08-28T20:55:14.908Z,85.93
2022-08-28T20:57:41.398Z,87.49
2022-08-28T21:00:09.826Z,86.34
2022-08-28T21:02:37.133Z,87.16
2022-08-28T21:05:04.769Z,86.82
2022-08-28T21:07:33.415Z,86.62
2022-08-28T21:10:04.387Z,87.52
2022-08-28T21:12:33.424Z,88.14
2022-08-28T21:15:00.217Z,87.79
2022-08-28T21:17:29.051Z,86.70
2022-08-28T21:19:56.946Z,86.39
2022-08-28T21:22:23.487Z,86.78
2022-08-28T21:24:49.993Z,86.87
2022-08-28T21:27:16.555Z,86.12
2022-08-28T21:29:45.974Z,88.06
2022-08-28T21:32:12.889Z,87.72
2022-08-28T21:34:39.365Z,87.70
2022-08-28T21:37:06.432Z,87.82
2022-08-28T21:39:33.134Z,87.77
2022-08-28T21:41:59.823Z,86.61
2022-08-28T21:44:26.311Z,87.56
2022-08-28T21:46:52.779Z,87.63
2022-08-28T21:49:19.422Z,88.28
2022-08-28T21:51:45.882Z,88.74
2022-08-28T21:54:12.436Z,88.21
2022-08-28T21:56:39.052Z,87.01
2022-08-28T21:59:05.499Z,88.20
2022-08-28T22:01:32.034Z,88.93
2022-08-28T22:03:58.927Z,88.65
2022-08-28T22:06:26.424Z,89.43
2022-08-28T22:08:54.355Z,89.56
2022-08-28T22:11:25.101Z,89.39
2022-08-28T22:13:52.373Z,88.46
2022-08-28T22:16:19.059Z,89.22
2022-08-28T22:18:45.720Z,90.05
2022-08-28T22:21:33.907Z,90.66
2022-08-28T22:24:01.126Z,90.65
2022-08-28T22:26:27.747Z,90.67
2022-08-28T22:28:54.778Z,90.10
2022-08-28T22:31:21.468Z,89.53
2022-08-28T22:33:48.895Z,90.27
2022-08-28T22:36:16.469Z,90.29
2022-08-28T22:38:47.023Z,90.31
2022-08-28T22:41:20.610Z,90.24
2022-08-28T22:43:51.438Z,91.03
2022-08-28T22:46:20.603Z,91.31
2022-08-28T22:48:47.423Z,90.50
2022-08-28T22:51:18.280Z,90.38
2022-08-28T22:53:45.405Z,90.95
2022-08-28T22:56:12.655Z,90.93
2022-08-28T22:58:39.757Z,90.64
2022-08-28T23:01:11.343Z,90.18
2022-08-28T23:03:39.287Z,90.10
2022-08-28T23:06:05.997Z,91.19
2022-08-28T23:08:34.216Z,90.33
2022-08-28T23:11:00.999Z,91.75
2022-08-28T23:13:28.408Z,91.55
2022-08-28T23:15:54.963Z,91.85
2022-08-28T23:18:21.650Z,91.15
2022-08-28T23:20:50.661Z,91.10
2022-08-28T23:23:18.841Z,90.75
2022-08-28T23:25:45.650Z,91.44
2022-08-28T23:28:12.532Z,91.38
2022-08-28T23:30:41.286Z,90.55
2022-08-28T23:33:23.235Z,91.48
2022-08-28T23:35:51.024Z,90.37
2022-08-28T23:38:17.642Z,90.77
2022-08-28T23:40:44.480Z,92.46
2022-08-28T23:43:11.465Z,91.78
2022-08-28T23:45:41.746Z,91.75
2022-08-28T23:48:08.960Z,92.49
2022-08-28T23:50:36.454Z,92.37
2022-08-28T23:53:04.118Z,93.37
2022-08-28T23:55:30.847Z,92.71
2022-08-28T23:58:00.209Z,92.20
